createdAt,value
2017-10-26T00:01:00.725Z,88.20
2017-10-26T00:03:34.582Z,88.30
2017-10-26T00:06:09.135Z,89.00
2017-10-26T00:08:42.814Z,88.70
2017-10-26T00:11:16.553Z,88.70
2017-10-26T00:13:51.209Z,88.80
2017-10-26T00:16:24.921Z,88.30
2017-10-26T00:18:58.769Z,88.20
2017-10-26T00:21:32.482Z,88.10
2017-10-26T00:24:07.049Z,88.80
2017-10-26T00:26:40.785Z,88.30
2017-10-26T00:29:14.595Z,88.00
2017-10-26T00:31:48.236Z,88.30
2017-10-26T00:36:58.403Z,88.20
2017-10-26T00:39:32.073Z,88.40
2017-10-26T00:42:05.914Z,88.50
2017-10-26T00:44:39.766Z,88.50
2017-10-26T00:47:13.629Z,88.50
2017-10-26T00:49:47.444Z,88.50
2017-10-26T00:52:21.182Z,88.50
2017-10-26T00:54:55.092Z,88.30
2017-10-26T00:57:28.866Z,88.30
2017-10-26T01:00:03.285Z,88.50
2017-10-26T01:02:37.024Z,87.90
2017-10-26T01:05:10.830Z,87.90
2017-10-26T01:07:44.573Z,87.80
2017-10-26T01:10:18.830Z,87.60
2017-10-26T01:12:53.410Z,88.30
2017-10-26T01:15:28.035Z,88.30
2017-10-26T01:18:01.805Z,87.70
2017-10-26T01:20:35.576Z,87.70
2017-10-26T01:23:09.449Z,87.70
2017-10-26T01:25:43.285Z,87.40
2017-10-26T01:28:17.069Z,87.20
2017-10-26T01:30:50.660Z,86.90
2017-10-26T01:33:24.434Z,86.90
2017-10-26T01:35:58.313Z,87.10
2017-10-26T01:38:32.016Z,87.60
2017-10-26T01:41:05.890Z,87.60
2017-10-26T01:43:39.633Z,87.80
2017-10-26T01:46:13.533Z,87.60
2017-10-26T01:48:47.449Z,88.20
2017-10-26T01:51:21.178Z,88.50
2017-10-26T01:53:54.833Z,88.70
2017-10-26T01:56:28.613Z,88.80
2017-10-26T01:59:02.396Z,88.90
2017-10-26T02:01:36.275Z,89.10
2017-10-26T02:04:10.036Z,89.20
2017-10-26T02:06:43.893Z,88.60
2017-10-26T02:09:18.477Z,89.30
2017-10-26T02:11:52.376Z,88.80
2017-10-26T02:14:26.149Z,89.00
2017-10-26T02:16:59.854Z,89.50
2017-10-26T02:19:33.695Z,88.90
2017-10-26T02:22:07.318Z,89.50
2017-10-26T02:24:41.125Z,89.50
2017-10-26T02:27:14.859Z,89.20
2017-10-26T02:30:00.709Z,89.70
2017-10-26T02:32:34.482Z,89.30
2017-10-26T02:35:08.302Z,89.10
2017-10-26T02:37:41.947Z,89.70
2017-10-26T02:40:15.836Z,89.50
2017-10-26T02:42:49.594Z,88.80
2017-10-26T02:45:23.449Z,89.20
2017-10-26T02:47:57.208Z,88.80
2017-10-26T02:50:31.870Z,89.30
2017-10-26T02:53:05.568Z,89.30
2017-10-26T02:55:39.308Z,88.70
2017-10-26T02:58:13.083Z,88.90
2017-10-26T03:00:47.511Z,88.20
2017-10-26T03:03:21.589Z,87.70
2017-10-26T03:05:55.440Z,87.60
2017-10-26T03:08:29.913Z,88.10
2017-10-26T03:11:04.334Z,87.60
2017-10-26T03:13:39.007Z,87.10
2017-10-26T03:16:12.944Z,87.10
2017-10-26T03:18:47.528Z,86.60
2017-10-26T03:21:21.349Z,86.20
2017-10-26T03:23:56.676Z,86.50
2017-10-26T03:26:30.393Z,85.80
2017-10-26T03:29:04.137Z,85.80
2017-10-26T03:31:38.671Z,85.70
2017-10-26T03:34:12.901Z,84.90
2017-10-26T03:36:46.763Z,84.70
2017-10-26T03:39:20.494Z,84.80
2017-10-26T03:41:55.009Z,84.80
2017-10-26T03:44:30.418Z,84.70
2017-10-26T03:47:04.157Z,84.10
2017-10-26T03:49:38.033Z,84.60
2017-10-26T03:52:11.683Z,84.40
2017-10-26T03:54:45.366Z,84.70
2017-10-26T03:57:19.878Z,85.70
2017-10-26T03:59:53.653Z,84.50
2017-10-26T04:02:27.525Z,84.40
2017-10-26T04:05:01.356Z,83.60
2017-10-26T04:07:36.038Z,83.70
2017-10-26T04:10:09.789Z,83.20
2017-10-26T04:12:43.677Z,83.20
2017-10-26T04:15:17.413Z,83.10
2017-10-26T04:17:51.022Z,83.60
2017-10-26T04:20:24.847Z,84.10
2017-10-26T04:22:58.702Z,83.40
2017-10-26T04:25:33.220Z,83.40
2017-10-26T04:28:07.801Z,84.20
2017-10-26T04:30:45.398Z,83.60
2017-10-26T04:33:23.469Z,84.10
2017-10-26T04:35:57.263Z,83.60
2017-10-26T04:38:31.854Z,84.70
2017-10-26T04:41:05.537Z,84.40
2017-10-26T04:43:39.405Z,84.60
2017-10-26T04:46:13.917Z,86.30
2017-10-26T04:48:47.535Z,85.20
2017-10-26T04:51:21.275Z,85.50
2017-10-26T04:53:54.925Z,85.60
2017-10-26T04:56:29.409Z,86.30
2017-10-26T04:59:03.522Z,86.20
2017-10-26T05:01:38.006Z,86.60
2017-10-26T05:04:11.915Z,86.10
2017-10-26T05:06:45.760Z,86.70
2017-10-26T05:09:19.589Z,86.20
2017-10-26T05:11:53.807Z,86.30
2017-10-26T05:14:27.566Z,86.40
2017-10-26T05:17:01.971Z,87.00
2017-10-26T05:19:35.643Z,87.00
2017-10-26T05:22:09.426Z,86.60
2017-10-26T05:24:43.083Z,86.70
2017-10-26T05:27:16.822Z,86.80
2017-10-26T05:29:50.613Z,86.80
2017-10-26T05:32:24.402Z,86.90
2017-10-26T05:34:58.177Z,87.10
2017-10-26T05:37:32.170Z,87.20
2017-10-26T05:40:05.932Z,87.30
2017-10-26T05:42:40.477Z,87.00
2017-10-26T05:45:14.324Z,87.20
2017-10-26T05:47:48.203Z,87.10
2017-10-26T05:52:57.047Z,87.00
2017-10-26T05:55:31.415Z,87.20
2017-10-26T05:58:05.958Z,87.80
2017-10-26T06:00:40.335Z,87.80
2017-10-26T06:03:14.535Z,87.30
2017-10-26T06:05:48.225Z,87.20
2017-10-26T06:08:22.722Z,87.20
2017-10-26T06:10:56.339Z,87.30
2017-10-26T06:13:31.042Z,87.30
2017-10-26T06:16:04.984Z,87.30
2017-10-26T06:18:38.666Z,87.40
2017-10-26T06:21:13.277Z,87.90
2017-10-26T06:23:46.885Z,87.30
2017-10-26T06:26:20.784Z,87.30
2017-10-26T06:28:54.601Z,87.30
2017-10-26T06:31:29.214Z,88.10
2017-10-26T06:34:03.080Z,87.80
2017-10-26T06:36:36.773Z,87.50
2017-10-26T06:39:10.618Z,87.80
2017-10-26T06:41:44.241Z,87.30
2017-10-26T06:44:18.016Z,87.80
2017-10-26T06:46:51.761Z,87.90
2017-10-26T06:49:25.565Z,88.00
2017-10-26T06:51:59.566Z,87.90
2017-10-26T06:54:34.060Z,88.00
2017-10-26T06:57:07.749Z,87.90
2017-10-26T06:59:41.617Z,87.50
2017-10-26T07:02:15.402Z,87.40
2017-10-26T07:04:53.952Z,87.30
2017-10-26T07:07:27.845Z,86.90
2017-10-26T07:10:01.533Z,85.80
2017-10-26T07:12:35.311Z,86.20
2017-10-26T07:15:09.127Z,85.80
2017-10-26T07:17:42.981Z,85.30
2017-10-26T07:20:16.734Z,84.90
2017-10-26T07:22:50.513Z,84.10
2017-10-26T07:25:24.140Z,83.30
2017-10-26T07:27:57.981Z,82.50
2017-10-26T07:30:31.785Z,82.30
2017-10-26T07:33:05.602Z,81.80
2017-10-26T07:35:40.246Z,81.80
2017-10-26T07:38:13.935Z,81.80
2017-10-26T07:40:47.994Z,81.90
2017-10-26T07:43:21.751Z,82.00
2017-10-26T07:45:55.478Z,82.20
2017-10-26T07:48:29.423Z,81.90
2017-10-26T07:51:03.127Z,81.00
2017-10-26T07:53:36.851Z,79.20
2017-10-26T07:56:11.474Z,77.70
2017-10-26T07:58:45.154Z,77.70
2017-10-26T08:01:18.857Z,78.00
2017-10-26T08:03:52.701Z,78.20
2017-10-26T08:06:26.391Z,78.20
2017-10-26T08:09:00.184Z,78.40
2017-10-26T08:11:33.968Z,78.00
2017-10-26T08:14:07.787Z,77.00
2017-10-26T08:16:41.399Z,76.20
2017-10-26T08:19:15.105Z,75.30
2017-10-26T08:21:49.726Z,75.00
2017-10-26T08:24:25.441Z,74.90
2017-10-26T08:26:59.307Z,75.10
2017-10-26T08:29:34.034Z,76.20
2017-10-26T08:32:07.751Z,75.70
2017-10-26T08:34:41.356Z,76.10
2017-10-26T08:37:15.129Z,76.60
2017-10-26T08:39:49.035Z,76.50
2017-10-26T08:42:23.665Z,76.10
2017-10-26T08:44:57.333Z,76.10
2017-10-26T08:47:31.207Z,76.10
2017-10-26T08:50:04.953Z,75.30
2017-10-26T08:52:38.777Z,75.10
2017-10-26T08:55:13.887Z,75.40
2017-10-26T08:57:47.652Z,75.30
2017-10-26T09:00:21.306Z,75.20
2017-10-26T09:02:55.586Z,75.30
2017-10-26T09:05:29.372Z,75.20
2017-10-26T09:08:03.848Z,75.40
2017-10-26T09:10:37.766Z,75.20
2017-10-26T09:13:11.537Z,75.40
2017-10-26T09:15:45.334Z,75.40
2017-10-26T09:18:19.222Z,75.20
2017-10-26T09:20:53.095Z,75.10
2017-10-26T09:23:26.939Z,74.20
2017-10-26T09:26:00.609Z,74.80
2017-10-26T09:28:34.440Z,74.70
2017-10-26T09:31:08.165Z,73.90
2017-10-26T09:33:41.978Z,73.00
2017-10-26T09:36:17.184Z,72.20
2017-10-26T09:38:50.870Z,71.90
2017-10-26T09:41:24.605Z,71.60
2017-10-26T09:43:59.162Z,71.50
2017-10-26T09:46:32.903Z,71.40
2017-10-26T09:49:07.399Z,72.10
2017-10-26T09:51:41.177Z,71.90
2017-10-26T09:54:15.017Z,71.40
2017-10-26T09:56:49.546Z,71.30
2017-10-26T09:59:23.156Z,72.00
2017-10-26T10:01:57.879Z,73.00
2017-10-26T10:04:31.625Z,73.00
2017-10-26T10:07:05.572Z,73.70
2017-10-26T10:09:39.206Z,74.10
2017-10-26T10:12:12.975Z,74.50
2017-10-26T10:14:46.753Z,74.90
2017-10-26T10:17:20.801Z,74.90
2017-10-26T10:19:54.676Z,74.80
2017-10-26T10:22:28.513Z,74.50
2017-10-26T10:25:02.236Z,74.50
2017-10-26T10:27:36.854Z,74.30
2017-10-26T10:30:10.547Z,74.30
2017-10-26T10:32:45.076Z,73.90
2017-10-26T10:35:18.954Z,73.90
2017-10-26T10:37:52.761Z,73.50
2017-10-26T10:40:26.605Z,73.10
2017-10-26T10:43:00.518Z,73.00
2017-10-26T10:45:34.202Z,72.60
2017-10-26T10:48:07.913Z,72.40
2017-10-26T10:50:41.755Z,72.90
2017-10-26T10:53:15.461Z,73.60
2017-10-26T10:55:50.105Z,74.80
2017-10-26T10:58:23.790Z,74.20
2017-10-26T11:00:57.620Z,75.10
2017-10-26T11:03:31.242Z,72.80
2017-10-26T11:06:04.997Z,73.20
2017-10-26T11:08:39.454Z,73.30
2017-10-26T11:11:15.408Z,72.40
2017-10-26T11:13:49.323Z,71.40
2017-10-26T11:16:23.025Z,71.10
2017-10-26T11:18:56.794Z,71.10
2017-10-26T11:21:30.921Z,71.10
2017-10-26T11:24:04.657Z,70.70
2017-10-26T11:26:38.461Z,70.60
2017-10-26T11:29:12.260Z,70.00
2017-10-26T11:31:46.055Z,69.60
2017-10-26T11:34:20.515Z,70.70
2017-10-26T11:36:55.175Z,70.40
2017-10-26T11:39:29.019Z,70.00
2017-10-26T11:42:02.895Z,68.40
2017-10-26T11:44:36.676Z,67.80
2017-10-26T11:47:10.411Z,67.80
2017-10-26T11:49:44.138Z,68.10
2017-10-26T11:52:18.639Z,68.50
2017-10-26T11:54:52.366Z,68.20
2017-10-26T11:57:26.146Z,68.60
2017-10-26T12:00:00.036Z,67.10
2017-10-26T12:02:33.817Z,67.00
2017-10-26T12:05:07.691Z,67.60
2017-10-26T12:07:41.813Z,67.80
2017-10-26T12:10:16.340Z,67.90
2017-10-26T12:15:26.453Z,68.80
2017-10-26T12:18:00.290Z,68.40
2017-10-26T12:20:33.970Z,69.00
2017-10-26T12:23:08.508Z,69.80
2017-10-26T12:25:43.010Z,70.20
2017-10-26T12:28:17.547Z,69.50
2017-10-26T12:30:51.433Z,69.10
2017-10-26T12:33:25.699Z,69.60
2017-10-26T12:35:59.515Z,69.70
2017-10-26T12:38:33.926Z,70.20
2017-10-26T12:41:08.450Z,69.50
2017-10-26T12:43:42.394Z,69.20
2017-10-26T12:46:15.985Z,69.30
2017-10-26T12:48:49.782Z,69.20
2017-10-26T12:51:24.350Z,69.00
2017-10-26T12:53:58.198Z,67.90
2017-10-26T12:56:31.790Z,67.00
2017-10-26T12:59:05.695Z,67.00
2017-10-26T13:01:39.465Z,66.20
2017-10-26T13:04:13.194Z,65.70
2017-10-26T13:06:48.577Z,65.70
2017-10-26T13:09:23.069Z,66.50
2017-10-26T13:11:56.871Z,66.00
2017-10-26T13:14:30.618Z,66.00
2017-10-26T13:17:04.511Z,65.80
2017-10-26T13:19:38.360Z,66.60
2017-10-26T13:22:12.121Z,65.50
2017-10-26T13:24:46.198Z,65.10
2017-10-26T13:27:20.055Z,65.90
2017-10-26T13:29:53.809Z,65.80
2017-10-26T13:32:27.517Z,65.50
2017-10-26T13:35:01.270Z,65.30
2017-10-26T13:37:35.038Z,65.50
2017-10-26T13:40:09.142Z,65.70
2017-10-26T13:42:43.734Z,66.90
2017-10-26T13:45:17.550Z,66.50
2017-10-26T13:47:52.025Z,66.70
2017-10-26T13:50:25.905Z,66.20
2017-10-26T13:53:00.544Z,66.20
2017-10-26T13:55:34.445Z,66.20
2017-10-26T13:58:08.435Z,65.60
2017-10-26T14:00:42.055Z,65.60
2017-10-26T14:03:15.770Z,65.40
2017-10-26T14:05:49.524Z,65.80
2017-10-26T14:08:24.063Z,66.00
2017-10-26T14:10:57.766Z,66.30
2017-10-26T14:13:31.559Z,66.50
2017-10-26T14:16:06.697Z,67.60
2017-10-26T14:18:40.310Z,67.60
2017-10-26T14:21:14.014Z,68.10
2017-10-26T14:23:48.503Z,67.50
2017-10-26T14:26:22.296Z,66.10
2017-10-26T14:28:56.859Z,65.70
2017-10-26T14:31:30.417Z,65.60
2017-10-26T14:34:04.314Z,66.40
2017-10-26T14:36:37.965Z,66.90
2017-10-26T14:39:12.414Z,66.70
2017-10-26T14:41:46.892Z,67.50
2017-10-26T14:44:21.536Z,67.90
2017-10-26T14:46:56.124Z,68.30
2017-10-26T14:49:29.909Z,68.00
2017-10-26T14:52:03.751Z,68.20
2017-10-26T14:54:37.583Z,68.00
2017-10-26T14:57:11.566Z,68.50
2017-10-26T14:59:46.113Z,69.00
2017-10-26T15:02:19.713Z,68.70
2017-10-26T15:04:53.448Z,69.10
2017-10-26T15:07:27.591Z,69.10
2017-10-26T15:10:02.195Z,69.50
2017-10-26T15:12:37.637Z,69.80
2017-10-26T15:15:12.226Z,70.60
2017-10-26T15:17:45.914Z,70.20
2017-10-26T15:20:19.710Z,70.70
2017-10-26T15:22:53.490Z,70.70
2017-10-26T15:25:27.329Z,71.00
2017-10-26T15:28:01.104Z,71.30
2017-10-26T15:30:34.863Z,71.90
2017-10-26T15:33:09.429Z,73.30
2017-10-26T15:35:43.200Z,72.70
2017-10-26T15:38:16.942Z,72.40
2017-10-26T15:40:50.736Z,73.00
2017-10-26T15:43:24.490Z,72.60
2017-10-26T15:45:58.365Z,72.80
2017-10-26T15:48:32.104Z,73.10
2017-10-26T15:51:05.837Z,73.10
2017-10-26T15:53:40.335Z,73.70
2017-10-26T15:56:14.061Z,73.40
2017-10-26T15:58:47.781Z,73.30
2017-10-26T16:01:21.637Z,73.40
2017-10-26T16:03:55.433Z,73.50
2017-10-26T16:06:29.182Z,73.30
2017-10-26T16:09:02.934Z,73.40
2017-10-26T16:11:36.548Z,74.10
2017-10-26T16:14:11.055Z,74.60
2017-10-26T16:16:44.839Z,74.00
2017-10-26T16:19:18.684Z,74.20
2017-10-26T16:21:52.908Z,74.40
2017-10-26T16:24:26.708Z,74.90
2017-10-26T16:27:00.386Z,75.10
2017-10-26T16:29:34.071Z,75.20
2017-10-26T16:32:07.860Z,75.20
2017-10-26T16:34:41.613Z,75.50
2017-10-26T16:37:15.565Z,75.30
2017-10-26T16:39:49.368Z,75.70
2017-10-26T16:42:23.157Z,75.70
2017-10-26T16:44:58.391Z,75.90
2017-10-26T16:47:32.314Z,75.00
2017-10-26T16:50:06.051Z,75.40
2017-10-26T16:52:39.874Z,74.90
2017-10-26T16:55:13.706Z,75.00
2017-10-26T16:57:47.574Z,75.20
2017-10-26T17:00:21.333Z,75.20
2017-10-26T17:02:55.125Z,75.70
2017-10-26T17:05:28.829Z,75.20
2017-10-26T17:08:03.352Z,75.80
2017-10-26T17:10:37.225Z,75.20
2017-10-26T17:13:11.016Z,75.80
2017-10-26T17:15:44.802Z,75.20
2017-10-26T17:18:18.432Z,75.80
2017-10-26T17:20:52.306Z,75.70
2017-10-26T17:23:26.709Z,75.30
2017-10-26T17:26:01.115Z,76.00
2017-10-26T17:28:35.534Z,73.10
2017-10-26T17:31:09.308Z,75.30
2017-10-26T17:33:44.701Z,75.30
2017-10-26T17:36:19.135Z,75.90
2017-10-26T17:38:53.077Z,75.20
2017-10-26T17:41:27.662Z,75.80
2017-10-26T17:44:01.338Z,75.30
2017-10-26T17:46:35.105Z,75.30
2017-10-26T17:49:09.245Z,75.60
2017-10-26T17:51:44.589Z,76.30
2017-10-26T17:54:20.050Z,75.90
2017-10-26T17:56:53.991Z,75.80
2017-10-26T17:59:27.767Z,75.60
2017-10-26T18:02:03.516Z,76.30
2017-10-26T18:04:37.341Z,75.80
2017-10-26T18:07:11.086Z,75.90
2017-10-26T18:09:44.991Z,75.80
2017-10-26T18:12:18.721Z,75.80
2017-10-26T18:14:52.577Z,75.70
2017-10-26T18:17:26.385Z,75.80
2017-10-26T18:20:00.306Z,76.00
2017-10-26T18:22:34.355Z,75.80
2017-10-26T18:25:08.215Z,75.90
2017-10-26T18:27:42.218Z,75.70
2017-10-26T18:30:16.165Z,75.70
2017-10-26T18:32:49.913Z,75.50
2017-10-26T18:35:23.716Z,75.60
2017-10-26T18:37:57.647Z,75.70
2017-10-26T18:40:32.105Z,76.30
2017-10-26T18:43:07.293Z,75.80
2017-10-26T18:45:40.872Z,75.90
2017-10-26T18:48:14.717Z,76.00
2017-10-26T18:50:48.596Z,76.00
2017-10-26T18:53:22.461Z,75.00
2017-10-26T18:55:57.065Z,76.30
2017-10-26T18:58:31.625Z,76.50
2017-10-26T19:01:06.140Z,76.70
2017-10-26T19:03:39.880Z,77.20
2017-10-26T19:06:14.543Z,76.20
2017-10-26T19:08:48.267Z,76.30
2017-10-26T19:11:22.089Z,76.30
2017-10-26T19:13:55.709Z,76.30
2017-10-26T19:16:29.636Z,76.30
2017-10-26T19:19:03.394Z,76.10
2017-10-26T19:21:37.265Z,76.10
2017-10-26T19:24:11.792Z,76.40
2017-10-26T19:26:45.526Z,75.90
2017-10-26T19:29:19.221Z,76.40
2017-10-26T19:31:54.762Z,76.30
2017-10-26T19:34:28.497Z,75.80
2017-10-26T19:37:02.171Z,76.00
2017-10-26T19:39:38.043Z,76.10
2017-10-26T19:42:12.919Z,76.10
2017-10-26T19:44:46.782Z,76.30
2017-10-26T19:47:20.941Z,76.20
2017-10-26T19:49:54.761Z,76.00
2017-10-26T19:52:29.346Z,76.60
2017-10-26T19:55:03.336Z,76.20
2017-10-26T19:57:37.206Z,76.20
2017-10-26T20:00:12.324Z,76.10
2017-10-26T20:02:46.093Z,76.10
2017-10-26T20:05:19.929Z,76.00
2017-10-26T20:07:53.715Z,75.80
2017-10-26T20:10:27.477Z,76.30
2017-10-26T20:13:03.713Z,77.30
2017-10-26T20:15:37.594Z,77.80
2017-10-26T20:18:11.336Z,77.40
2017-10-26T20:20:45.917Z,78.00
2017-10-26T20:23:20.402Z,78.30
2017-10-26T20:25:54.250Z,78.00
2017-10-26T20:28:28.006Z,78.90
2017-10-26T20:31:01.834Z,78.70
2017-10-26T20:33:35.637Z,78.30
2017-10-26T20:36:09.420Z,79.30
2017-10-26T20:38:43.233Z,78.80
2017-10-26T20:41:17.002Z,79.00
2017-10-26T20:43:50.903Z,79.00
2017-10-26T20:46:24.665Z,78.50
2017-10-26T20:48:58.505Z,78.70
2017-10-26T20:51:38.064Z,79.00
2017-10-26T20:54:17.701Z,79.00
2017-10-26T20:56:57.222Z,79.10
2017-10-26T20:59:36.806Z,79.30
2017-10-26T21:02:16.465Z,78.90
2017-10-26T21:04:56.155Z,79.30
2017-10-26T21:07:35.655Z,79.20
2017-10-26T21:10:15.283Z,79.30
2017-10-26T21:12:54.758Z,79.00
2017-10-26T21:15:28.701Z,78.40
2017-10-26T21:18:02.605Z,78.40
2017-10-26T21:20:36.309Z,78.90
2017-10-26T21:23:10.992Z,79.80
2017-10-26T21:28:19.713Z,79.10
2017-10-26T21:30:53.525Z,79.30
2017-10-26T21:33:27.274Z,79.50
2017-10-26T21:36:01.077Z,79.50
2017-10-26T21:38:35.673Z,79.60
2017-10-26T21:41:09.377Z,79.10
2017-10-26T21:43:43.197Z,79.70
2017-10-26T21:46:17.143Z,80.00
2017-10-26T21:48:50.984Z,80.00
2017-10-26T21:51:24.649Z,80.00
2017-10-26T21:53:58.411Z,80.10
2017-10-26T21:56:32.889Z,81.40
2017-10-26T21:59:06.536Z,80.30
2017-10-26T22:01:40.301Z,80.70
2017-10-26T22:04:14.227Z,80.40
2017-10-26T22:06:48.915Z,80.80
2017-10-26T22:09:23.333Z,81.30
2017-10-26T22:11:56.945Z,80.70
2017-10-26T22:14:31.830Z,80.80
2017-10-26T22:17:05.673Z,80.70
2017-10-26T22:19:39.386Z,80.90
2017-10-26T22:22:13.941Z,80.80
2017-10-26T22:24:48.433Z,81.60
2017-10-26T22:27:22.190Z,80.80
2017-10-26T22:29:55.930Z,81.70
2017-10-26T22:32:29.797Z,80.70
2017-10-26T22:35:03.607Z,80.60
2017-10-26T22:37:37.353Z,80.40
2017-10-26T22:40:11.272Z,80.50
2017-10-26T22:42:45.778Z,80.90
2017-10-26T22:45:19.723Z,80.80
2017-10-26T22:47:53.541Z,80.70
2017-10-26T22:50:27.300Z,81.00
2017-10-26T22:53:02.209Z,81.10
2017-10-26T22:55:36.122Z,80.90
2017-10-26T22:58:09.917Z,80.20
2017-10-26T23:00:43.755Z,81.30
2017-10-26T23:03:17.537Z,81.30
2017-10-26T23:05:51.509Z,81.40
2017-10-26T23:08:25.380Z,81.90
2017-10-26T23:10:59.222Z,81.20
2017-10-26T23:13:33.017Z,81.20
2017-10-26T23:16:06.882Z,81.70
2017-10-26T23:18:41.420Z,81.30
2017-10-26T23:21:15.703Z,81.20
2017-10-26T23:23:49.366Z,81.50
2017-10-26T23:26:23.336Z,81.20
2017-10-26T23:28:57.157Z,81.60
2017-10-26T23:31:31.108Z,81.30
2017-10-26T23:34:04.917Z,81.30
2017-10-26T23:36:39.506Z,80.90
2017-10-26T23:39:13.416Z,80.90
2017-10-26T23:41:47.057Z,81.20
2017-10-26T23:44:20.917Z,81.50
2017-10-26T23:46:54.734Z,81.60
2017-10-26T23:49:29.182Z,81.20
2017-10-26T23:52:03.651Z,81.70
2017-10-26T23:54:37.645Z,81.30
2017-10-26T23:57:11.331Z,81.70
2017-10-26T23:59:45.270Z,81.80
